sensor_id;sensor_type;location;lat;lon;timestamp;temperature;humidity
10089;DHT22;51898;49.864;8.550;2022-12-07T00:02:08;4.30;99.90
10089;DHT22;51898;49.864;8.550;2022-12-07T00:05:09;4.20;99.90
10089;DHT22;51898;49.864;8.550;2022-12-07T00:08:11;4.20;99.90
10089;DHT22;51898;49.864;8.550;2022-12-07T00:11:18;4.20;99.90
10089;DHT22;51898;49.864;8.550;2022-12-07T00:14:21;4.20;99.90
10089;DHT22;51898;49.864;8.550;2022-12-07T00:17:22;4.20;99.90
10089;DHT22;51898;49.864;8.550;2022-12-07T00:20:24;4.10;99.90
10089;DHT22;51898;49.864;8.550;2022-12-07T00:23:25;4.10;99.90
10089;DHT22;51898;49.864;8.550;2022-12-07T00:26:30;4.10;99.90
10089;DHT22;51898;49.864;8.550;2022-12-07T00:29:32;4.10;99.90
10089;DHT22;51898;49.864;8.550;2022-12-07T00:32:33;4.00;99.90
10089;DHT22;51898;49.864;8.550;2022-12-07T00:35:35;4.00;99.90
10089;DHT22;51898;49.864;8.550;2022-12-07T00:38:37;4.00;99.90
10089;DHT22;51898;49.864;8.550;2022-12-07T00:41:39;4.10;99.90
10089;DHT22;51898;49.864;8.550;2022-12-07T00:44:41;4.10;99.90
10089;DHT22;51898;49.864;8.550;2022-12-07T00:47:43;4.10;99.90
10089;DHT22;51898;49.864;8.550;2022-12-07T00:50:44;4.10;99.90
10089;DHT22;51898;49.864;8.550;2022-12-07T00:53:46;4.10;99.90
10089;DHT22;51898;49.864;8.550;2022-12-07T00:56:48;4.00;99.90
10089;DHT22;51898;49.864;8.550;2022-12-07T00:59:50;4.00;99.90
10089;DHT22;51898;49.864;8.550;2022-12-07T01:02:52;4.00;99.90
10089;DHT22;51898;49.864;8.550;2022-12-07T01:05:55;4.00;99.90
10089;DHT22;51898;49.864;8.550;2022-12-07T01:08:57;3.90;99.90
10089;DHT22;51898;49.864;8.550;2022-12-07T01:11:59;3.80;99.90
10089;DHT22;51898;49.864;8.550;2022-12-07T01:15:01;3.70;99.90
10089;DHT22;51898;49.864;8.550;2022-12-07T01:18:03;3.70;99.90
10089;DHT22;51898;49.864;8.550;2022-12-07T01:21:05;3.70;99.90
10089;DHT22;51898;49.864;8.550;2022-12-07T01:24:10;3.70;99.90
10089;DHT22;51898;49.864;8.550;2022-12-07T01:27:12;3.70;99.90
10089;DHT22;51898;49.864;8.550;2022-12-07T01:30:14;3.70;99.90
10089;DHT22;51898;49.864;8.550;2022-12-07T01:33:16;3.80;99.90
10089;DHT22;51898;49.864;8.550;2022-12-07T01:36:21;3.80;99.90
10089;DHT22;51898;49.864;8.550;2022-12-07T01:39:23;3.70;99.90
10089;DHT22;51898;49.864;8.550;2022-12-07T01:42:24;3.80;99.90
10089;DHT22;51898;49.864;8.550;2022-12-07T01:45:40;3.70;99.90
10089;DHT22;51898;49.864;8.550;2022-12-07T01:48:43;3.70;99.90
10089;DHT22;51898;49.864;8.550;2022-12-07T01:51:47;3.80;99.90
10089;DHT22;51898;49.864;8.550;2022-12-07T01:54:53;3.70;99.90
10089;DHT22;51898;49.864;8.550;2022-12-07T01:57:56;3.70;99.90
10089;DHT22;51898;49.864;8.550;2022-12-07T02:00:58;3.60;99.90
10089;DHT22;51898;49.864;8.550;2022-12-07T02:03:59;3.60;99.90
10089;DHT22;51898;49.864;8.550;2022-12-07T02:07:03;3.60;99.90
10089;DHT22;51898;49.864;8.550;2022-12-07T02:10:16;3.60;99.90
10089;DHT22;51898;49.864;8.550;2022-12-07T02:13:22;3.70;99.90
10089;DHT22;51898;49.864;8.550;2022-12-07T02:16:35;3.70;99.90
10089;DHT22;51898;49.864;8.550;2022-12-07T02:23:19;3.70;99.90
10089;DHT22;51898;49.864;8.550;2022-12-07T02:29:49;3.60;99.90
10089;DHT22;51898;49.864;8.550;2022-12-07T02:33:14;3.70;99.90
10089;DHT22;51898;49.864;8.550;2022-12-07T02:36:25;3.70;99.90
10089;DHT22;51898;49.864;8.550;2022-12-07T02:39:42;3.70;99.90
10089;DHT22;51898;49.864;8.550;2022-12-07T02:42:50;3.70;99.90
10089;DHT22;51898;49.864;8.550;2022-12-07T02:46:04;3.70;99.90
10089;DHT22;51898;49.864;8.550;2022-12-07T02:49:08;3.70;99.90
10089;DHT22;51898;49.864;8.550;2022-12-07T02:52:10;3.80;99.90
10089;DHT22;51898;49.864;8.550;2022-12-07T02:55:13;3.80;99.90
10089;DHT22;51898;49.864;8.550;2022-12-07T03:05:38;3.70;99.90
10089;DHT22;51898;49.864;8.550;2022-12-07T03:08:50;3.80;99.90
10089;DHT22;51898;49.864;8.550;2022-12-07T03:15:16;3.70;99.90
10089;DHT22;51898;49.864;8.550;2022-12-07T03:18:22;3.60;99.90
10089;DHT22;51898;49.864;8.550;2022-12-07T03:21:32;3.60;99.90
10089;DHT22;51898;49.864;8.550;2022-12-07T03:24:41;3.60;99.90
10089;DHT22;51898;49.864;8.550;2022-12-07T03:30:49;3.60;99.90
10089;DHT22;51898;49.864;8.550;2022-12-07T03:34:21;3.70;99.90
10089;DHT22;51898;49.864;8.550;2022-12-07T03:37:42;3.70;99.90
10089;DHT22;51898;49.864;8.550;2022-12-07T03:41:05;3.70;99.90
10089;DHT22;51898;49.864;8.550;2022-12-07T03:44:07;3.70;99.90
10089;DHT22;51898;49.864;8.550;2022-12-07T03:57:08;3.50;99.90
10089;DHT22;51898;49.864;8.550;2022-12-07T04:00:12;3.60;99.90
10089;DHT22;51898;49.864;8.550;2022-12-07T04:03:14;3.60;99.90
10089;DHT22;51898;49.864;8.550;2022-12-07T04:06:17;3.50;99.90
10089;DHT22;51898;49.864;8.550;2022-12-07T04:09:19;3.50;99.90
10089;DHT22;51898;49.864;8.550;2022-12-07T04:12:22;3.50;99.90
10089;DHT22;51898;49.864;8.550;2022-12-07T04:15:23;3.60;99.90
10089;DHT22;51898;49.864;8.550;2022-12-07T04:18:25;3.60;99.90
10089;DHT22;51898;49.864;8.550;2022-12-07T04:21:26;3.60;99.90
10089;DHT22;51898;49.864;8.550;2022-12-07T04:24:28;3.60;99.90
10089;DHT22;51898;49.864;8.550;2022-12-07T04:27:30;3.60;99.90
10089;DHT22;51898;49.864;8.550;2022-12-07T04:30:31;3.60;99.90
10089;DHT22;51898;49.864;8.550;2022-12-07T04:33:33;3.60;99.90
10089;DHT22;51898;49.864;8.550;2022-12-07T04:36:36;3.60;99.90
10089;DHT22;51898;49.864;8.550;2022-12-07T04:39:38;3.60;99.90
10089;DHT22;51898;49.864;8.550;2022-12-07T04:42:39;3.60;99.90
10089;DHT22;51898;49.864;8.550;2022-12-07T04:45:46;3.60;99.90
10089;DHT22;51898;49.864;8.550;2022-12-07T04:48:49;3.60;99.90
10089;DHT22;51898;49.864;8.550;2022-12-07T04:51:51;3.60;99.90
10089;DHT22;51898;49.864;8.550;2022-12-07T04:54:52;3.70;99.90
10089;DHT22;51898;49.864;8.550;2022-12-07T04:57:54;3.70;99.90
10089;DHT22;51898;49.864;8.550;2022-12-07T05:00:56;3.60;99.90
10089;DHT22;51898;49.864;8.550;2022-12-07T05:03:58;3.70;99.90
10089;DHT22;51898;49.864;8.550;2022-12-07T05:06:59;3.70;99.90
10089;DHT22;51898;49.864;8.550;2022-12-07T05:10:01;3.80;99.90
10089;DHT22;51898;49.864;8.550;2022-12-07T05:13:03;3.70;99.90
10089;DHT22;51898;49.864;8.550;2022-12-07T05:16:05;3.70;99.90
10089;DHT22;51898;49.864;8.550;2022-12-07T05:19:07;3.70;99.90
10089;DHT22;51898;49.864;8.550;2022-12-07T05:22:09;3.70;99.90
10089;DHT22;51898;49.864;8.550;2022-12-07T05:25:11;3.70;99.90
10089;DHT22;51898;49.864;8.550;2022-12-07T05:28:13;3.70;99.90
10089;DHT22;51898;49.864;8.550;2022-12-07T05:31:15;3.70;99.90
10089;DHT22;51898;49.864;8.550;2022-12-07T05:34:16;3.70;99.90
10089;DHT22;51898;49.864;8.550;2022-12-07T05:37:18;3.70;99.90
10089;DHT22;51898;49.864;8.550;2022-12-07T05:40:19;3.70;99.90
10089;DHT22;51898;49.864;8.550;2022-12-07T05:43:21;3.70;99.90
10089;DHT22;51898;49.864;8.550;2022-12-07T05:46:23;3.80;99.90
10089;DHT22;51898;49.864;8.550;2022-12-07T05:49:24;3.80;99.90
10089;DHT22;51898;49.864;8.550;2022-12-07T05:52:26;3.80;99.90
10089;DHT22;51898;49.864;8.550;2022-12-07T05:55:28;3.80;99.90
10089;DHT22;51898;49.864;8.550;2022-12-07T05:58:29;3.80;99.90
10089;DHT22;51898;49.864;8.550;2022-12-07T06:01:55;3.80;99.90
10089;DHT22;51898;49.864;8.550;2022-12-07T06:04:57;3.80;99.90
10089;DHT22;51898;49.864;8.550;2022-12-07T06:07:59;3.80;99.90
10089;DHT22;51898;49.864;8.550;2022-12-07T06:11:06;3.80;99.90
10089;DHT22;51898;49.864;8.550;2022-12-07T06:14:26;3.90;99.90
10089;DHT22;51898;49.864;8.550;2022-12-07T06:17:28;3.90;99.90
10089;DHT22;51898;49.864;8.550;2022-12-07T06:20:29;3.90;99.90
10089;DHT22;51898;49.864;8.550;2022-12-07T06:23:31;3.90;99.90
10089;DHT22;51898;49.864;8.550;2022-12-07T06:26:33;3.90;99.90
10089;DHT22;51898;49.864;8.550;2022-12-07T06:29:34;3.90;99.90
10089;DHT22;51898;49.864;8.550;2022-12-07T06:32:36;3.90;99.90
10089;DHT22;51898;49.864;8.550;2022-12-07T06:35:38;3.90;99.90
10089;DHT22;51898;49.864;8.550;2022-12-07T06:38:40;3.90;99.90
10089;DHT22;51898;49.864;8.550;2022-12-07T06:41:41;3.90;99.90
10089;DHT22;51898;49.864;8.550;2022-12-07T06:44:43;3.90;99.90
10089;DHT22;51898;49.864;8.550;2022-12-07T06:47:45;4.00;99.90
10089;DHT22;51898;49.864;8.550;2022-12-07T06:50:48;4.00;99.90
10089;DHT22;51898;49.864;8.550;2022-12-07T06:53:55;4.00;99.90
10089;DHT22;51898;49.864;8.550;2022-12-07T06:56:57;4.00;99.90
10089;DHT22;51898;49.864;8.550;2022-12-07T06:59:58;4.10;99.90
10089;DHT22;51898;49.864;8.550;2022-12-07T07:03:01;4.10;99.90
10089;DHT22;51898;49.864;8.550;2022-12-07T07:06:03;4.00;99.90
10089;DHT22;51898;49.864;8.550;2022-12-07T07:09:05;4.00;99.90
10089;DHT22;51898;49.864;8.550;2022-12-07T07:12:07;4.10;99.90
10089;DHT22;51898;49.864;8.550;2022-12-07T07:15:09;4.20;99.90
10089;DHT22;51898;49.864;8.550;2022-12-07T07:18:12;4.10;99.90
10089;DHT22;51898;49.864;8.550;2022-12-07T07:21:14;4.10;99.90
10089;DHT22;51898;49.864;8.550;2022-12-07T07:24:16;4.10;99.90
10089;DHT22;51898;49.864;8.550;2022-12-07T07:27:18;4.10;99.90
10089;DHT22;51898;49.864;8.550;2022-12-07T07:30:19;4.10;99.90
10089;DHT22;51898;49.864;8.550;2022-12-07T07:33:21;4.10;99.90
10089;DHT22;51898;49.864;8.550;2022-12-07T07:36:23;4.10;99.90
10089;DHT22;51898;49.864;8.550;2022-12-07T07:39:24;4.20;99.90
10089;DHT22;51898;49.864;8.550;2022-12-07T07:42:26;4.20;99.90
10089;DHT22;51898;49.864;8.550;2022-12-07T07:45:28;4.20;99.90
10089;DHT22;51898;49.864;8.550;2022-12-07T07:48:29;4.20;99.90
10089;DHT22;51898;49.864;8.550;2022-12-07T07:51:31;4.20;99.90
10089;DHT22;51898;49.864;8.550;2022-12-07T07:54:32;4.30;99.90
10089;DHT22;51898;49.864;8.550;2022-12-07T07:57:35;4.30;99.90
10089;DHT22;51898;49.864;8.550;2022-12-07T08:00:37;4.30;99.90
10089;DHT22;51898;49.864;8.550;2022-12-07T08:03:39;4.30;99.90
10089;DHT22;51898;49.864;8.550;2022-12-07T08:06:40;4.40;99.90
10089;DHT22;51898;49.864;8.550;2022-12-07T08:09:43;4.40;99.90
10089;DHT22;51898;49.864;8.550;2022-12-07T08:12:45;4.40;99.90
10089;DHT22;51898;49.864;8.550;2022-12-07T08:16:07;4.50;99.90
10089;DHT22;51898;49.864;8.550;2022-12-07T08:19:10;4.50;99.90
10089;DHT22;51898;49.864;8.550;2022-12-07T08:22:11;4.50;99.90
10089;DHT22;51898;49.864;8.550;2022-12-07T08:25:13;4.60;99.90
10089;DHT22;51898;49.864;8.550;2022-12-07T08:28:15;4.60;99.90
10089;DHT22;51898;49.864;8.550;2022-12-07T08:31:17;4.60;99.90
10089;DHT22;51898;49.864;8.550;2022-12-07T08:34:20;4.70;99.90
10089;DHT22;51898;49.864;8.550;2022-12-07T08:37:22;4.70;99.90
10089;DHT22;51898;49.864;8.550;2022-12-07T08:40:23;4.70;99.90
10089;DHT22;51898;49.864;8.550;2022-12-07T08:43:25;4.60;99.90
10089;DHT22;51898;49.864;8.550;2022-12-07T08:49:42;4.70;99.90
10089;DHT22;51898;49.864;8.550;2022-12-07T08:52:49;4.70;99.90
10089;DHT22;51898;49.864;8.550;2022-12-07T08:55:52;4.70;99.90
10089;DHT22;51898;49.864;8.550;2022-12-07T08:58:53;4.60;99.90
10089;DHT22;51898;49.864;8.550;2022-12-07T09:01:56;4.60;99.90
10089;DHT22;51898;49.864;8.550;2022-12-07T09:04:58;4.60;99.90
10089;DHT22;51898;49.864;8.550;2022-12-07T09:08:01;4.70;99.90
10089;DHT22;51898;49.864;8.550;2022-12-07T09:11:03;4.80;99.90
10089;DHT22;51898;49.864;8.550;2022-12-07T09:14:05;5.00;99.90
10089;DHT22;51898;49.864;8.550;2022-12-07T09:17:12;5.10;99.90
10089;DHT22;51898;49.864;8.550;2022-12-07T09:20:14;5.20;99.90
10089;DHT22;51898;49.864;8.550;2022-12-07T09:23:15;5.20;99.90
10089;DHT22;51898;49.864;8.550;2022-12-07T09:26:17;5.40;99.90
10089;DHT22;51898;49.864;8.550;2022-12-07T09:29:18;5.50;99.90
10089;DHT22;51898;49.864;8.550;2022-12-07T09:32:20;5.60;99.90
10089;DHT22;51898;49.864;8.550;2022-12-07T09:35:23;5.70;99.90
10089;DHT22;51898;49.864;8.550;2022-12-07T09:38:25;5.80;99.90
10089;DHT22;51898;49.864;8.550;2022-12-07T09:41:29;5.90;99.90
10089;DHT22;51898;49.864;8.550;2022-12-07T09:44:31;5.90;99.90
10089;DHT22;51898;49.864;8.550;2022-12-07T09:47:34;5.90;99.90
10089;DHT22;51898;49.864;8.550;2022-12-07T09:50:39;6.00;99.90
10089;DHT22;51898;49.864;8.550;2022-12-07T09:53:41;6.10;99.90
10089;DHT22;51898;49.864;8.550;2022-12-07T09:56:44;6.20;99.90
10089;DHT22;51898;49.864;8.550;2022-12-07T09:59:46;6.10;99.90
10089;DHT22;51898;49.864;8.550;2022-12-07T10:02:59;6.10;99.90
10089;DHT22;51898;49.864;8.550;2022-12-07T10:06:01;6.20;99.90
10089;DHT22;51898;49.864;8.550;2022-12-07T10:09:11;6.10;99.90
10089;DHT22;51898;49.864;8.550;2022-12-07T10:12:13;6.10;99.90
10089;DHT22;51898;49.864;8.550;2022-12-07T10:15:17;6.10;99.90
10089;DHT22;51898;49.864;8.550;2022-12-07T10:18:28;6.10;99.90
10089;DHT22;51898;49.864;8.550;2022-12-07T10:21:31;6.10;99.90
10089;DHT22;51898;49.864;8.550;2022-12-07T10:24:33;6.10;99.90
10089;DHT22;51898;49.864;8.550;2022-12-07T10:27:35;6.10;99.90
10089;DHT22;51898;49.864;8.550;2022-12-07T10:34:01;6.20;99.90
10089;DHT22;51898;49.864;8.550;2022-12-07T10:40:31;6.20;99.90
10089;DHT22;51898;49.864;8.550;2022-12-07T10:43:33;6.20;99.90
10089;DHT22;51898;49.864;8.550;2022-12-07T10:49:55;6.20;99.90
10089;DHT22;51898;49.864;8.550;2022-12-07T10:53:16;6.20;99.90
10089;DHT22;51898;49.864;8.550;2022-12-07T11:03:23;6.40;99.90
10089;DHT22;51898;49.864;8.550;2022-12-07T11:13:23;6.50;99.90
10089;DHT22;51898;49.864;8.550;2022-12-07T11:16:55;6.40;99.90
10089;DHT22;51898;49.864;8.550;2022-12-07T11:20:03;6.30;99.90
10089;DHT22;51898;49.864;8.550;2022-12-07T11:23:16;6.30;99.90
10089;DHT22;51898;49.864;8.550;2022-12-07T11:26:47;6.30;99.90
10089;DHT22;51898;49.864;8.550;2022-12-07T11:30:10;6.20;99.90
10089;DHT22;51898;49.864;8.550;2022-12-07T11:33:38;6.20;99.90
10089;DHT22;51898;49.864;8.550;2022-12-07T11:36:50;6.20;99.90
10089;DHT22;51898;49.864;8.550;2022-12-07T11:39:56;6.30;99.90
10089;DHT22;51898;49.864;8.550;2022-12-07T11:43:30;6.40;99.90
10089;DHT22;51898;49.864;8.550;2022-12-07T11:46:54;6.50;99.90
10089;DHT22;51898;49.864;8.550;2022-12-07T11:56:17;6.60;99.90
10089;DHT22;51898;49.864;8.550;2022-12-07T11:59:31;6.70;99.90
10089;DHT22;51898;49.864;8.550;2022-12-07T12:02:43;6.60;99.90
10089;DHT22;51898;49.864;8.550;2022-12-07T12:05:47;6.60;99.90
10089;DHT22;51898;49.864;8.550;2022-12-07T12:09:14;6.50;99.90
10089;DHT22;51898;49.864;8.550;2022-12-07T12:20:40;6.70;99.90
10089;DHT22;51898;49.864;8.550;2022-12-07T12:23:45;6.80;99.90
10089;DHT22;51898;49.864;8.550;2022-12-07T12:27:02;6.80;99.90
10089;DHT22;51898;49.864;8.550;2022-12-07T12:30:22;6.80;99.90
10089;DHT22;51898;49.864;8.550;2022-12-07T12:33:30;6.80;99.90
10089;DHT22;51898;49.864;8.550;2022-12-07T12:43:43;6.90;99.90
10089;DHT22;51898;49.864;8.550;2022-12-07T12:50:16;6.90;99.90
10089;DHT22;51898;49.864;8.550;2022-12-07T12:53:22;6.80;99.90
10089;DHT22;51898;49.864;8.550;2022-12-07T13:02:56;6.30;99.90
10089;DHT22;51898;49.864;8.550;2022-12-07T13:06:31;6.30;99.90
10089;DHT22;51898;49.864;8.550;2022-12-07T13:09:35;6.50;99.90
10089;DHT22;51898;49.864;8.550;2022-12-07T13:12:39;6.50;99.90
10089;DHT22;51898;49.864;8.550;2022-12-07T13:20:39;6.80;99.90
10089;DHT22;51898;49.864;8.550;2022-12-07T13:22:49;6.90;99.90
10089;DHT22;51898;49.864;8.550;2022-12-07T13:26:21;6.80;99.90
10089;DHT22;51898;49.864;8.550;2022-12-07T13:29:24;6.70;99.90
10089;DHT22;51898;49.864;8.550;2022-12-07T13:32:28;6.80;99.90
10089;DHT22;51898;49.864;8.550;2022-12-07T13:35:34;6.80;99.90
10089;DHT22;51898;49.864;8.550;2022-12-07T13:38:36;6.90;99.90
10089;DHT22;51898;49.864;8.550;2022-12-07T13:41:42;6.80;99.90
10089;DHT22;51898;49.864;8.550;2022-12-07T13:44:43;6.70;99.90
10089;DHT22;51898;49.864;8.550;2022-12-07T13:47:57;6.60;99.90
10089;DHT22;51898;49.864;8.550;2022-12-07T13:51:01;6.50;99.90
10089;DHT22;51898;49.864;8.550;2022-12-07T13:54:10;6.50;99.90
10089;DHT22;51898;49.864;8.550;2022-12-07T13:57:12;6.50;99.90
10089;DHT22;51898;49.864;8.550;2022-12-07T14:00:18;6.60;99.90
10089;DHT22;51898;49.864;8.550;2022-12-07T14:03:28;6.70;99.90
10089;DHT22;51898;49.864;8.550;2022-12-07T14:06:30;6.60;99.90
10089;DHT22;51898;49.864;8.550;2022-12-07T14:09:32;6.60;99.90
10089;DHT22;51898;49.864;8.550;2022-12-07T14:12:36;6.70;99.90
10089;DHT22;51898;49.864;8.550;2022-12-07T14:15:38;6.70;99.90
10089;DHT22;51898;49.864;8.550;2022-12-07T14:18:42;6.80;99.90
10089;DHT22;51898;49.864;8.550;2022-12-07T14:21:47;6.80;99.90
10089;DHT22;51898;49.864;8.550;2022-12-07T14:28:03;6.70;99.90
10089;DHT22;51898;49.864;8.550;2022-12-07T14:31:18;6.60;99.90
10089;DHT22;51898;49.864;8.550;2022-12-07T14:34:30;6.60;99.90
10089;DHT22;51898;49.864;8.550;2022-12-07T14:37:32;6.50;99.90
10089;DHT22;51898;49.864;8.550;2022-12-07T14:40:33;6.40;99.90
10089;DHT22;51898;49.864;8.550;2022-12-07T14:43:35;6.30;99.90
10089;DHT22;51898;49.864;8.550;2022-12-07T14:46:50;6.20;99.90
10089;DHT22;51898;49.864;8.550;2022-12-07T14:50:17;6.20;99.90
10089;DHT22;51898;49.864;8.550;2022-12-07T14:53:24;6.20;99.90
10089;DHT22;51898;49.864;8.550;2022-12-07T14:56:29;6.10;99.90
10089;DHT22;51898;49.864;8.550;2022-12-07T14:59:30;6.10;99.90
10089;DHT22;51898;49.864;8.550;2022-12-07T15:02:32;6.10;99.90
10089;DHT22;51898;49.864;8.550;2022-12-07T15:05:35;6.10;99.90
10089;DHT22;51898;49.864;8.550;2022-12-07T15:08:38;6.10;99.90
10089;DHT22;51898;49.864;8.550;2022-12-07T15:11:40;6.00;99.90
10089;DHT22;51898;49.864;8.550;2022-12-07T15:14:45;5.90;99.90
10089;DHT22;51898;49.864;8.550;2022-12-07T15:17:47;5.90;99.90
10089;DHT22;51898;49.864;8.550;2022-12-07T15:20:50;5.80;99.90
10089;DHT22;51898;49.864;8.550;2022-12-07T15:23:53;5.80;99.90
10089;DHT22;51898;49.864;8.550;2022-12-07T15:26:55;5.70;99.90
10089;DHT22;51898;49.864;8.550;2022-12-07T15:29:56;5.60;99.90
10089;DHT22;51898;49.864;8.550;2022-12-07T15:32:58;5.60;99.90
10089;DHT22;51898;49.864;8.550;2022-12-07T15:36:00;5.60;99.90
10089;DHT22;51898;49.864;8.550;2022-12-07T15:39:02;5.60;99.90
10089;DHT22;51898;49.864;8.550;2022-12-07T15:42:19;5.60;99.90
10089;DHT22;51898;49.864;8.550;2022-12-07T15:45:21;5.60;99.90
10089;DHT22;51898;49.864;8.550;2022-12-07T15:48:22;5.60;99.90
10089;DHT22;51898;49.864;8.550;2022-12-07T15:51:29;5.60;99.90
10089;DHT22;51898;49.864;8.550;2022-12-07T15:54:32;5.50;99.90
10089;DHT22;51898;49.864;8.550;2022-12-07T15:57:36;5.50;99.90
10089;DHT22;51898;49.864;8.550;2022-12-07T16:00:38;5.40;99.90
10089;DHT22;51898;49.864;8.550;2022-12-07T16:03:40;5.50;99.90
10089;DHT22;51898;49.864;8.550;2022-12-07T16:06:41;5.40;99.90
10089;DHT22;51898;49.864;8.550;2022-12-07T16:09:44;5.40;99.90
10089;DHT22;51898;49.864;8.550;2022-12-07T16:12:46;5.40;99.90
10089;DHT22;51898;49.864;8.550;2022-12-07T16:15:47;5.40;99.90
10089;DHT22;51898;49.864;8.550;2022-12-07T16:18:50;5.50;99.90
10089;DHT22;51898;49.864;8.550;2022-12-07T16:21:52;5.50;99.90
10089;DHT22;51898;49.864;8.550;2022-12-07T16:24:53;5.40;99.90
10089;DHT22;51898;49.864;8.550;2022-12-07T16:27:55;5.40;99.90
10089;DHT22;51898;49.864;8.550;2022-12-07T16:31:04;5.30;99.90
10089;DHT22;51898;49.864;8.550;2022-12-07T16:34:07;5.30;99.90
10089;DHT22;51898;49.864;8.550;2022-12-07T16:37:09;5.20;99.90
10089;DHT22;51898;49.864;8.550;2022-12-07T16:40:12;5.20;99.90
10089;DHT22;51898;49.864;8.550;2022-12-07T16:43:14;5.20;99.90
10089;DHT22;51898;49.864;8.550;2022-12-07T16:46:16;5.30;99.90
10089;DHT22;51898;49.864;8.550;2022-12-07T16:49:18;5.30;99.90
10089;DHT22;51898;49.864;8.550;2022-12-07T16:52:21;5.40;99.90
10089;DHT22;51898;49.864;8.550;2022-12-07T16:55:22;5.40;99.90
10089;DHT22;51898;49.864;8.550;2022-12-07T16:58:24;5.40;99.90
10089;DHT22;51898;49.864;8.550;2022-12-07T17:01:26;5.40;99.90
10089;DHT22;51898;49.864;8.550;2022-12-07T17:04:31;5.40;99.90
10089;DHT22;51898;49.864;8.550;2022-12-07T17:07:37;5.50;99.90
10089;DHT22;51898;49.864;8.550;2022-12-07T17:10:42;5.50;99.90
10089;DHT22;51898;49.864;8.550;2022-12-07T17:13:45;5.40;99.90
10089;DHT22;51898;49.864;8.550;2022-12-07T17:17:05;5.40;99.90
10089;DHT22;51898;49.864;8.550;2022-12-07T17:20:07;5.30;99.90
10089;DHT22;51898;49.864;8.550;2022-12-07T17:23:09;5.30;99.90
10089;DHT22;51898;49.864;8.550;2022-12-07T17:26:16;5.20;99.90
10089;DHT22;51898;49.864;8.550;2022-12-07T17:29:21;5.20;99.90
10089;DHT22;51898;49.864;8.550;2022-12-07T17:32:23;5.20;99.90
10089;DHT22;51898;49.864;8.550;2022-12-07T17:35:26;5.20;99.90
10089;DHT22;51898;49.864;8.550;2022-12-07T17:38:28;5.10;99.90
10089;DHT22;51898;49.864;8.550;2022-12-07T17:41:32;5.10;99.90
10089;DHT22;51898;49.864;8.550;2022-12-07T17:44:52;5.10;99.90
10089;DHT22;51898;49.864;8.550;2022-12-07T17:47:54;5.00;99.90
10089;DHT22;51898;49.864;8.550;2022-12-07T17:50:59;5.00;99.90
10089;DHT22;51898;49.864;8.550;2022-12-07T17:54:20;5.00;99.90
10089;DHT22;51898;49.864;8.550;2022-12-07T17:57:22;5.00;99.90
10089;DHT22;51898;49.864;8.550;2022-12-07T18:00:26;4.90;99.90
10089;DHT22;51898;49.864;8.550;2022-12-07T18:03:27;4.90;99.90
10089;DHT22;51898;49.864;8.550;2022-12-07T18:06:30;4.90;99.90
10089;DHT22;51898;49.864;8.550;2022-12-07T18:09:32;4.90;99.90
10089;DHT22;51898;49.864;8.550;2022-12-07T18:12:34;5.00;99.90
10089;DHT22;51898;49.864;8.550;2022-12-07T18:15:37;5.00;99.90
10089;DHT22;51898;49.864;8.550;2022-12-07T18:18:40;5.00;99.90
10089;DHT22;51898;49.864;8.550;2022-12-07T18:21:42;4.90;99.90
10089;DHT22;51898;49.864;8.550;2022-12-07T18:24:44;4.90;99.90
10089;DHT22;51898;49.864;8.550;2022-12-07T18:27:46;4.90;99.90
10089;DHT22;51898;49.864;8.550;2022-12-07T18:30:47;4.90;99.90
10089;DHT22;51898;49.864;8.550;2022-12-07T18:34:14;4.90;99.90
10089;DHT22;51898;49.864;8.550;2022-12-07T18:37:16;4.90;99.90
10089;DHT22;51898;49.864;8.550;2022-12-07T18:40:18;4.80;99.90
10089;DHT22;51898;49.864;8.550;2022-12-07T18:43:20;4.80;99.90
10089;DHT22;51898;49.864;8.550;2022-12-07T18:46:21;4.80;99.90
10089;DHT22;51898;49.864;8.550;2022-12-07T18:49:23;4.80;99.90
10089;DHT22;51898;49.864;8.550;2022-12-07T18:52:25;4.80;99.90
10089;DHT22;51898;49.864;8.550;2022-12-07T18:55:28;4.80;99.90
10089;DHT22;51898;49.864;8.550;2022-12-07T18:58:30;4.70;99.90
10089;DHT22;51898;49.864;8.550;2022-12-07T19:01:32;4.70;99.90
10089;DHT22;51898;49.864;8.550;2022-12-07T19:04:35;4.70;99.90
10089;DHT22;51898;49.864;8.550;2022-12-07T19:07:36;4.60;99.90
10089;DHT22;51898;49.864;8.550;2022-12-07T19:10:40;4.60;99.90
10089;DHT22;51898;49.864;8.550;2022-12-07T19:13:42;4.60;99.90
10089;DHT22;51898;49.864;8.550;2022-12-07T19:16:44;4.60;99.90
10089;DHT22;51898;49.864;8.550;2022-12-07T19:19:46;4.60;99.90
10089;DHT22;51898;49.864;8.550;2022-12-07T19:22:48;4.60;99.90
10089;DHT22;51898;49.864;8.550;2022-12-07T19:25:53;4.50;99.90
10089;DHT22;51898;49.864;8.550;2022-12-07T19:28:55;4.50;99.90
10089;DHT22;51898;49.864;8.550;2022-12-07T19:32:01;4.40;99.90
10089;DHT22;51898;49.864;8.550;2022-12-07T19:35:04;4.40;99.90
10089;DHT22;51898;49.864;8.550;2022-12-07T19:38:06;4.40;99.90
10089;DHT22;51898;49.864;8.550;2022-12-07T19:41:10;4.40;99.90
10089;DHT22;51898;49.864;8.550;2022-12-07T19:44:34;4.40;99.90
10089;DHT22;51898;49.864;8.550;2022-12-07T19:47:36;4.30;99.90
10089;DHT22;51898;49.864;8.550;2022-12-07T19:50:38;4.30;99.90
10089;DHT22;51898;49.864;8.550;2022-12-07T19:53:39;4.30;99.90
10089;DHT22;51898;49.864;8.550;2022-12-07T19:56:42;4.30;99.90
10089;DHT22;51898;49.864;8.550;2022-12-07T19:59:44;4.30;99.90
10089;DHT22;51898;49.864;8.550;2022-12-07T20:02:50;4.30;99.90
10089;DHT22;51898;49.864;8.550;2022-12-07T20:05:52;4.20;99.90
10089;DHT22;51898;49.864;8.550;2022-12-07T20:08:55;4.20;99.90
10089;DHT22;51898;49.864;8.550;2022-12-07T20:11:56;4.20;99.90
10089;DHT22;51898;49.864;8.550;2022-12-07T20:15:17;4.30;99.90
10089;DHT22;51898;49.864;8.550;2022-12-07T20:18:18;4.20;99.90
10089;DHT22;51898;49.864;8.550;2022-12-07T20:21:20;4.20;99.90
10089;DHT22;51898;49.864;8.550;2022-12-07T20:24:23;4.10;99.90
10089;DHT22;51898;49.864;8.550;2022-12-07T20:27:26;4.10;99.90
10089;DHT22;51898;49.864;8.550;2022-12-07T20:30:27;4.10;99.90
10089;DHT22;51898;49.864;8.550;2022-12-07T20:33:30;4.10;99.90
10089;DHT22;51898;49.864;8.550;2022-12-07T20:36:31;4.00;99.90
10089;DHT22;51898;49.864;8.550;2022-12-07T20:39:34;4.00;99.90
10089;DHT22;51898;49.864;8.550;2022-12-07T20:42:35;4.00;99.90
10089;DHT22;51898;49.864;8.550;2022-12-07T20:45:48;4.00;99.90
10089;DHT22;51898;49.864;8.550;2022-12-07T20:48:50;4.00;99.90
10089;DHT22;51898;49.864;8.550;2022-12-07T20:51:51;4.00;99.90
10089;DHT22;51898;49.864;8.550;2022-12-07T20:54:53;3.90;99.90
10089;DHT22;51898;49.864;8.550;2022-12-07T20:57:55;3.90;99.90
10089;DHT22;51898;49.864;8.550;2022-12-07T21:01:01;3.90;99.90
10089;DHT22;51898;49.864;8.550;2022-12-07T21:04:03;3.90;99.90
10089;DHT22;51898;49.864;8.550;2022-12-07T21:07:05;4.00;99.90
10089;DHT22;51898;49.864;8.550;2022-12-07T21:10:07;4.00;99.90
10089;DHT22;51898;49.864;8.550;2022-12-07T21:13:09;4.00;99.90
10089;DHT22;51898;49.864;8.550;2022-12-07T21:16:13;3.90;99.90
10089;DHT22;51898;49.864;8.550;2022-12-07T21:19:15;3.90;99.90
10089;DHT22;51898;49.864;8.550;2022-12-07T21:22:17;3.90;99.90